createdAt,value
2018-11-29T00:00:34.658Z,78.30
2018-11-29T00:02:38.484Z,78.20
2018-11-29T00:04:42.217Z,78.10
2018-11-29T00:06:46.157Z,78.10
2018-11-29T00:08:49.972Z,78.20
2018-11-29T00:10:53.995Z,78.20
2018-11-29T00:12:57.807Z,78.30
2018-11-29T00:15:01.521Z,78.30
2018-11-29T00:17:05.171Z,78.30
2018-11-29T00:19:09.266Z,78.10
2018-11-29T00:21:13.112Z,77.50
2018-11-29T00:23:16.968Z,76.90
2018-11-29T00:25:21.801Z,76.40
2018-11-29T00:29:39.272Z,75.90
2018-11-29T00:31:43.231Z,76.20
2018-11-29T00:33:48.581Z,76.30
2018-11-29T00:35:52.217Z,76.60
2018-11-29T00:37:56.314Z,76.20
2018-11-29T00:40:00.142Z,75.90
2018-11-29T00:42:03.861Z,75.90
2018-11-29T00:44:07.613Z,75.10
2018-11-29T00:46:11.726Z,74.40
2018-11-29T00:48:15.476Z,74.00
2018-11-29T00:50:19.902Z,73.90
2018-11-29T00:52:23.861Z,73.90
2018-11-29T00:54:27.581Z,73.80
2018-11-29T00:56:31.560Z,74.10
2018-11-29T00:58:48.343Z,74.60
2018-11-29T01:00:52.186Z,74.60
2018-11-29T01:02:55.861Z,75.00
2018-11-29T01:04:59.770Z,74.70
2018-11-29T01:07:03.492Z,74.40
2018-11-29T01:09:10.265Z,74.40
2018-11-29T01:11:14.236Z,74.20
2018-11-29T01:13:18.173Z,74.50
2018-11-29T01:15:22.701Z,74.30
2018-11-29T01:17:26.618Z,74.50
2018-11-29T01:19:30.406Z,74.40
2018-11-29T01:21:34.243Z,74.40
2018-11-29T01:23:38.308Z,74.70
2018-11-29T01:27:56.173Z,74.20
2018-11-29T01:29:59.878Z,74.50
2018-11-29T01:32:03.549Z,74.60
2018-11-29T01:34:20.349Z,75.90
2018-11-29T01:36:24.574Z,76.60
2018-11-29T01:38:40.579Z,77.20
2018-11-29T01:40:57.800Z,77.30
2018-11-29T01:43:01.750Z,77.40
2018-11-29T01:45:11.184Z,76.40
2018-11-29T01:47:15.169Z,75.90
2018-11-29T01:49:19.037Z,76.10
2018-11-29T01:51:22.993Z,76.00
2018-11-29T01:53:26.791Z,76.30
2018-11-29T01:55:30.622Z,76.70
2018-11-29T01:57:34.476Z,77.10
2018-11-29T01:59:38.273Z,77.50
2018-11-29T02:02:08.349Z,77.60
2018-11-29T02:04:25.576Z,77.50
2018-11-29T02:12:44.232Z,74.70
2018-11-29T02:14:48.434Z,75.40
2018-11-29T02:19:57.790Z,77.10
2018-11-29T02:22:01.532Z,77.40
2018-11-29T02:27:12.722Z,77.60
2018-11-29T02:29:16.419Z,78.30
2018-11-29T02:31:20.362Z,78.60
2018-11-29T02:33:24.128Z,78.60
2018-11-29T02:35:27.908Z,78.60
2018-11-29T02:37:31.617Z,78.70
2018-11-29T02:39:35.477Z,78.50
2018-11-29T02:41:39.341Z,78.20
2018-11-29T02:43:43.188Z,78.00
2018-11-29T02:45:47.153Z,77.90
2018-11-29T02:47:50.822Z,77.90
2018-11-29T02:49:55.168Z,78.30
2018-11-29T02:51:59.205Z,78.20
2018-11-29T02:54:04.028Z,78.00
2018-11-29T02:56:07.894Z,77.90
2018-11-29T02:58:11.797Z,77.60
2018-11-29T03:00:17.502Z,77.20
2018-11-29T03:02:21.318Z,77.20
2018-11-29T03:04:25.221Z,77.20
2018-11-29T03:06:29.005Z,76.90
2018-11-29T03:08:32.681Z,76.80
2018-11-29T03:10:36.486Z,76.50
2018-11-29T03:12:40.685Z,76.30
2018-11-29T03:14:44.690Z,76.40
2018-11-29T03:16:48.444Z,76.40
2018-11-29T03:18:52.344Z,76.80
2018-11-29T03:21:10.551Z,77.10
2018-11-29T03:23:14.565Z,77.40
2018-11-29T03:25:18.413Z,77.40
2018-11-29T03:27:22.332Z,77.40
2018-11-29T03:29:26.097Z,77.40
2018-11-29T03:31:29.931Z,77.20
2018-11-29T03:33:33.547Z,77.30
2018-11-29T03:35:38.509Z,77.40
2018-11-29T03:37:42.386Z,77.40
2018-11-29T03:39:46.156Z,77.70
2018-11-29T03:41:49.965Z,77.70
2018-11-29T03:45:18.005Z,77.80
2018-11-29T03:47:22.850Z,77.70
2018-11-29T03:49:26.603Z,77.10
2018-11-29T03:51:30.247Z,77.20
2018-11-29T03:53:35.086Z,77.30
2018-11-29T03:55:39.918Z,77.20
2018-11-29T03:57:45.484Z,77.30
2018-11-29T03:59:49.285Z,77.30
2018-11-29T04:01:52.952Z,77.70
2018-11-29T04:03:56.696Z,77.70
2018-11-29T04:06:00.865Z,77.40
2018-11-29T04:08:04.522Z,77.00
2018-11-29T04:10:14.319Z,76.60
2018-11-29T04:12:18.108Z,76.40
2018-11-29T04:14:22.928Z,76.40
2018-11-29T04:16:26.654Z,75.80
2018-11-29T04:18:30.514Z,75.90
2018-11-29T04:20:34.505Z,76.30
2018-11-29T04:22:38.278Z,76.40
2018-11-29T04:24:42.120Z,76.50
2018-11-29T04:26:45.957Z,76.50
2018-11-29T04:28:49.884Z,75.90
2018-11-29T04:30:53.876Z,75.70
2018-11-29T04:32:57.654Z,75.40
2018-11-29T04:35:01.537Z,75.30
2018-11-29T04:37:05.634Z,75.50
2018-11-29T04:39:09.401Z,75.40
2018-11-29T04:41:13.194Z,75.20
2018-11-29T04:43:17.134Z,74.80
2018-11-29T04:45:21.031Z,74.50
2018-11-29T04:47:25.021Z,73.60
2018-11-29T04:49:28.888Z,73.20
2018-11-29T04:51:32.725Z,73.00
2018-11-29T04:53:37.005Z,73.60
2018-11-29T04:55:41.785Z,74.10
2018-11-29T04:57:45.597Z,74.40
2018-11-29T04:59:49.553Z,75.30
2018-11-29T05:01:53.450Z,74.70
2018-11-29T05:03:57.121Z,74.60
2018-11-29T05:06:00.868Z,74.20
2018-11-29T05:08:05.402Z,73.90
2018-11-29T05:10:19.856Z,73.90
2018-11-29T05:12:23.681Z,73.90
2018-11-29T05:14:27.402Z,73.60
2018-11-29T05:16:31.221Z,73.40
2018-11-29T05:18:36.011Z,73.70
2018-11-29T05:20:39.909Z,73.90
2018-11-29T05:22:43.853Z,73.90
2018-11-29T05:24:47.782Z,74.00
2018-11-29T05:26:51.432Z,73.90
2018-11-29T05:28:55.815Z,73.90
2018-11-29T05:30:59.591Z,74.20
2018-11-29T05:33:03.409Z,74.30
2018-11-29T05:35:09.833Z,74.50
2018-11-29T05:37:13.760Z,74.50
2018-11-29T05:39:17.564Z,74.50
2018-11-29T05:41:21.397Z,74.00
2018-11-29T05:43:25.070Z,73.10
2018-11-29T05:45:28.881Z,72.90
2018-11-29T05:47:32.668Z,72.80
2018-11-29T05:49:36.601Z,73.20
2018-11-29T05:51:53.412Z,73.50
2018-11-29T05:53:57.111Z,73.40
2018-11-29T05:56:00.987Z,73.40
2018-11-29T05:58:04.740Z,73.40
2018-11-29T06:00:12.853Z,73.10
2018-11-29T06:02:16.652Z,72.60
2018-11-29T06:04:20.420Z,72.70
2018-11-29T06:06:24.137Z,73.10
2018-11-29T06:08:27.785Z,73.10
2018-11-29T06:10:31.556Z,73.30
2018-11-29T06:12:35.147Z,73.60
2018-11-29T06:14:38.891Z,73.50
2018-11-29T06:16:42.626Z,73.10
2018-11-29T06:18:46.397Z,73.10
2018-11-29T06:20:50.181Z,73.10
2018-11-29T06:22:54.021Z,73.40
2018-11-29T06:24:57.651Z,73.40
2018-11-29T06:27:01.357Z,73.60
2018-11-29T06:29:05.154Z,73.60
2018-11-29T06:31:09.064Z,73.80
2018-11-29T06:33:12.704Z,74.00
2018-11-29T06:35:16.426Z,73.90
2018-11-29T06:37:20.095Z,73.80
2018-11-29T06:39:23.708Z,73.70
2018-11-29T06:41:27.515Z,73.70
2018-11-29T06:43:31.282Z,73.90
2018-11-29T06:45:34.957Z,73.90
2018-11-29T06:47:38.715Z,74.00
2018-11-29T06:49:42.369Z,74.10
2018-11-29T06:51:46.148Z,74.00
2018-11-29T06:53:55.215Z,74.10
2018-11-29T06:55:58.946Z,74.20
2018-11-29T06:58:02.727Z,75.10
2018-11-29T07:00:12.164Z,76.00
2018-11-29T07:02:15.860Z,75.40
2018-11-29T07:04:19.670Z,76.30
2018-11-29T07:06:23.352Z,76.90
2018-11-29T07:08:27.104Z,77.00
2018-11-29T07:10:35.864Z,76.40
2018-11-29T07:15:58.154Z,76.20
2018-11-29T07:18:01.891Z,77.70
2018-11-29T07:20:13.396Z,78.00
2018-11-29T07:22:17.428Z,78.90
2018-11-29T07:24:21.212Z,79.20
2018-11-29T07:26:25.170Z,79.70
2018-11-29T07:28:28.853Z,81.10
2018-11-29T07:30:32.700Z,81.10
2018-11-29T07:32:36.348Z,81.50
2018-11-29T07:34:39.982Z,80.90
2018-11-29T07:36:43.584Z,81.60
2018-11-29T07:38:47.200Z,80.70
2018-11-29T07:40:50.819Z,80.40
2018-11-29T07:42:55.128Z,80.80
2018-11-29T07:44:59.060Z,81.00
2018-11-29T07:47:02.996Z,81.70
2018-11-29T07:49:06.637Z,82.60
2018-11-29T07:51:10.337Z,81.70
2018-11-29T07:53:14.268Z,82.80
2018-11-29T07:55:19.103Z,83.40
2018-11-29T07:57:22.996Z,83.80
2018-11-29T07:59:27.608Z,83.80
2018-11-29T08:01:31.691Z,84.20
2018-11-29T08:03:36.500Z,83.70
2018-11-29T08:05:40.501Z,86.20
2018-11-29T08:07:47.749Z,86.10
2018-11-29T08:09:49.460Z,85.90
2018-11-29T08:11:53.157Z,86.60
2018-11-29T08:13:56.971Z,86.60
2018-11-29T08:16:00.572Z,87.60
2018-11-29T08:18:04.310Z,86.40
2018-11-29T08:20:11.748Z,88.50
2018-11-29T08:22:15.401Z,87.70
2018-11-29T08:24:19.014Z,87.60
2018-11-29T08:26:22.566Z,88.20
2018-11-29T08:28:26.289Z,87.20
2018-11-29T08:30:29.922Z,86.60
2018-11-29T08:32:33.567Z,87.70
2018-11-29T08:34:37.304Z,86.80
2018-11-29T08:36:41.096Z,87.00
2018-11-29T08:38:44.913Z,87.50
2018-11-29T08:40:48.623Z,88.00
2018-11-29T08:42:52.395Z,87.20
2018-11-29T08:44:56.010Z,86.10
2018-11-29T08:47:00.038Z,84.70
2018-11-29T08:49:04.048Z,85.30
2018-11-29T08:51:08.646Z,84.60
2018-11-29T08:53:12.782Z,84.00
2018-11-29T08:55:18.652Z,84.60
2018-11-29T08:57:23.002Z,84.60
2018-11-29T08:59:26.837Z,83.70
2018-11-29T09:01:30.723Z,83.20
2018-11-29T09:03:36.205Z,84.50
2018-11-29T09:05:40.097Z,83.00
2018-11-29T09:07:46.654Z,82.80
2018-11-29T09:09:51.356Z,83.90
2018-11-29T09:11:55.226Z,84.90
2018-11-29T09:13:59.201Z,86.00
2018-11-29T09:16:03.175Z,84.10
2018-11-29T09:18:07.514Z,84.40
2018-11-29T09:20:17.474Z,85.00
2018-11-29T09:22:21.247Z,84.90
2018-11-29T09:24:25.482Z,85.40
2018-11-29T09:26:29.370Z,86.00
2018-11-29T09:28:33.238Z,86.30
2018-11-29T09:30:38.377Z,86.40
2018-11-29T09:32:43.157Z,85.90
2018-11-29T09:34:47.147Z,85.60
2018-11-29T09:36:50.949Z,87.30
2018-11-29T09:38:54.950Z,87.50
2018-11-29T09:40:59.045Z,87.10
2018-11-29T09:43:03.040Z,87.80
2018-11-29T09:45:10.191Z,87.80
2018-11-29T09:47:13.967Z,87.10
2018-11-29T09:49:17.671Z,86.60
2018-11-29T09:51:21.613Z,86.40
2018-11-29T09:53:25.348Z,86.60
2018-11-29T09:55:29.093Z,85.30
2018-11-29T09:57:32.896Z,85.20
2018-11-29T09:59:36.785Z,86.20
2018-11-29T10:01:40.706Z,87.00
2018-11-29T10:03:44.853Z,85.10
2018-11-29T10:05:48.767Z,86.20
2018-11-29T10:07:52.752Z,86.80
2018-11-29T10:09:56.620Z,86.30
2018-11-29T10:12:00.324Z,86.40
2018-11-29T10:14:04.349Z,87.30
2018-11-29T10:16:08.166Z,86.60
2018-11-29T10:18:12.329Z,87.60
2018-11-29T10:20:16.397Z,88.20
2018-11-29T10:22:20.553Z,88.70
2018-11-29T10:24:24.503Z,89.50
2018-11-29T10:26:28.807Z,89.60
2018-11-29T10:28:33.005Z,89.80
2018-11-29T10:30:43.940Z,90.10
2018-11-29T10:32:47.935Z,90.30
2018-11-29T10:34:51.844Z,90.30
2018-11-29T10:36:55.819Z,90.50
2018-11-29T10:38:59.738Z,90.20
2018-11-29T10:41:03.945Z,90.20
2018-11-29T10:43:07.874Z,90.40
2018-11-29T10:45:14.117Z,90.50
2018-11-29T10:47:17.906Z,90.30
2018-11-29T10:49:21.673Z,90.30
2018-11-29T10:51:25.621Z,90.30
2018-11-29T10:53:36.095Z,90.20
2018-11-29T10:55:33.258Z,90.30
2018-11-29T10:59:01.118Z,90.50
2018-11-29T11:01:10.427Z,90.50
2018-11-29T11:03:18.038Z,90.70
2018-11-29T11:05:21.825Z,90.90
2018-11-29T11:07:25.597Z,90.50
2018-11-29T11:09:29.285Z,90.40
2018-11-29T11:11:33.022Z,90.30
2018-11-29T11:13:38.031Z,89.70
2018-11-29T11:15:41.774Z,90.10
2018-11-29T11:17:45.681Z,90.10
2018-11-29T11:19:49.515Z,90.20
2018-11-29T11:21:53.202Z,90.20
2018-11-29T11:23:59.448Z,90.00
2018-11-29T11:26:00.961Z,90.00
2018-11-29T11:28:06.454Z,90.60
2018-11-29T11:30:14.610Z,90.50
2018-11-29T11:32:18.317Z,90.60
2018-11-29T11:34:22.229Z,90.70
2018-11-29T11:36:26.251Z,90.70
2018-11-29T11:38:30.195Z,90.60
2018-11-29T11:40:34.249Z,90.80
2018-11-29T11:42:38.377Z,90.50
2018-11-29T11:44:42.291Z,90.90
2018-11-29T11:46:46.275Z,90.60
2018-11-29T11:48:50.178Z,90.40
2018-11-29T11:50:54.070Z,90.50
2018-11-29T11:52:58.008Z,90.40
2018-11-29T11:55:01.822Z,90.40
2018-11-29T11:57:06.397Z,90.80
2018-11-29T11:59:10.322Z,90.40
2018-11-29T12:01:14.692Z,90.50
2018-11-29T12:03:18.659Z,90.50
2018-11-29T12:05:22.635Z,90.20
2018-11-29T12:07:26.828Z,90.00
2018-11-29T12:09:30.801Z,90.00
2018-11-29T12:11:34.820Z,90.20
2018-11-29T12:13:38.939Z,89.70
2018-11-29T12:15:43.971Z,90.20
2018-11-29T12:17:48.133Z,90.10
2018-11-29T12:19:52.262Z,90.00
2018-11-29T12:21:56.124Z,90.00
2018-11-29T12:25:27.746Z,90.10
2018-11-29T12:27:32.972Z,90.50
2018-11-29T12:29:38.099Z,90.40
2018-11-29T12:31:42.090Z,90.30
2018-11-29T12:33:46.646Z,90.70
2018-11-29T12:35:51.078Z,90.60
2018-11-29T12:37:55.030Z,90.70
2018-11-29T12:39:58.997Z,90.80
2018-11-29T12:42:02.950Z,90.90
2018-11-29T12:44:07.256Z,90.80
2018-11-29T12:46:11.100Z,90.90
2018-11-29T12:48:14.901Z,91.30
2018-11-29T12:50:21.085Z,91.20
2018-11-29T12:52:25.656Z,91.40
2018-11-29T12:54:30.693Z,91.30
2018-11-29T12:56:35.052Z,91.10
2018-11-29T12:58:39.237Z,91.30
2018-11-29T13:00:43.605Z,91.40
2018-11-29T13:02:59.296Z,91.40
2018-11-29T13:05:03.687Z,91.30
2018-11-29T13:07:08.772Z,91.00
2018-11-29T13:09:12.810Z,91.10
2018-11-29T13:11:16.817Z,91.00
2018-11-29T13:13:20.827Z,90.90
2018-11-29T13:15:27.323Z,90.90
2018-11-29T13:17:31.098Z,91.20
2018-11-29T13:19:35.400Z,90.80
2018-11-29T13:21:39.663Z,90.50
2018-11-29T13:23:43.793Z,90.50
2018-11-29T13:25:47.591Z,90.60
2018-11-29T13:27:51.871Z,90.00
2018-11-29T13:29:56.006Z,90.30
2018-11-29T13:32:00.025Z,90.50
2018-11-29T13:34:04.139Z,90.10
2018-11-29T13:36:08.377Z,90.10
2018-11-29T13:38:13.501Z,90.50
2018-11-29T13:42:21.251Z,90.20
2018-11-29T13:44:25.002Z,90.00
2018-11-29T13:46:29.208Z,89.60
2018-11-29T13:48:33.135Z,89.40
2018-11-29T13:50:37.020Z,88.80
2018-11-29T13:52:40.879Z,89.10
2018-11-29T13:54:44.849Z,89.20
2018-11-29T13:56:48.753Z,89.90
2018-11-29T13:58:52.650Z,90.10
2018-11-29T14:00:56.665Z,90.10
2018-11-29T14:03:06.925Z,90.20
2018-11-29T14:05:11.315Z,90.10
2018-11-29T14:07:15.206Z,90.20
2018-11-29T14:09:19.504Z,90.50
2018-11-29T14:11:23.432Z,90.40
2018-11-29T14:13:27.282Z,90.30
2018-11-29T14:15:31.158Z,90.30
2018-11-29T14:17:35.445Z,89.90
2018-11-29T14:19:39.306Z,90.00
2018-11-29T14:21:43.147Z,89.40
2018-11-29T14:23:47.162Z,89.50
2018-11-29T14:25:51.031Z,89.40
2018-11-29T14:27:56.216Z,90.00
2018-11-29T14:30:00.220Z,90.50
2018-11-29T14:32:04.286Z,90.10
2018-11-29T14:34:08.211Z,90.50
2018-11-29T14:36:12.104Z,90.50
2018-11-29T14:38:17.181Z,90.70
2018-11-29T14:40:22.254Z,90.90
2018-11-29T14:42:26.136Z,91.10
2018-11-29T14:44:30.316Z,91.30
2018-11-29T14:46:34.872Z,91.60
2018-11-29T14:48:38.826Z,91.70
2018-11-29T14:50:44.817Z,91.50
2018-11-29T14:52:49.125Z,91.50
2018-11-29T14:54:53.640Z,91.40
2018-11-29T14:56:58.914Z,91.50
2018-11-29T14:59:02.815Z,91.60
2018-11-29T15:01:06.740Z,91.40
2018-11-29T15:03:13.916Z,91.50
2018-11-29T15:05:20.537Z,91.60
2018-11-29T15:07:24.656Z,91.70
2018-11-29T15:09:28.591Z,92.00
2018-11-29T15:11:32.646Z,92.00
2018-11-29T15:13:36.868Z,92.00
2018-11-29T15:15:41.933Z,92.10
2018-11-29T15:17:46.587Z,92.00
2018-11-29T15:19:50.511Z,92.40
2018-11-29T15:21:55.102Z,92.50
2018-11-29T15:23:59.013Z,92.50
2018-11-29T15:26:03.099Z,92.70
2018-11-29T15:28:07.421Z,92.60
2018-11-29T15:30:20.505Z,92.70
2018-11-29T15:32:23.443Z,93.00
2018-11-29T15:34:27.408Z,92.80
2018-11-29T15:36:35.506Z,92.90
2018-11-29T15:38:41.046Z,92.70
2018-11-29T15:40:45.211Z,92.60
2018-11-29T15:42:49.205Z,92.60
2018-11-29T15:44:53.116Z,92.60
2018-11-29T15:46:57.229Z,92.60
2018-11-29T15:49:01.283Z,92.70
2018-11-29T15:51:05.416Z,92.30
2018-11-29T15:53:09.521Z,91.90
2018-11-29T15:55:17.177Z,91.90
2018-11-29T15:57:21.249Z,91.90
2018-11-29T15:59:25.116Z,91.60
2018-11-29T16:01:28.981Z,91.30
2018-11-29T16:03:33.100Z,91.50
2018-11-29T16:05:37.128Z,91.20
2018-11-29T16:07:41.069Z,91.60
2018-11-29T16:09:45.094Z,91.30
2018-11-29T16:11:49.217Z,91.00
2018-11-29T16:13:54.433Z,91.20
2018-11-29T16:15:58.735Z,91.40
2018-11-29T16:18:03.049Z,91.50
2018-11-29T16:20:11.476Z,91.40
2018-11-29T16:22:15.777Z,91.20
2018-11-29T16:24:19.629Z,91.30
2018-11-29T16:26:23.665Z,91.10
2018-11-29T16:28:27.521Z,91.20
2018-11-29T16:30:35.857Z,91.40
2018-11-29T16:32:39.804Z,91.00
2018-11-29T16:34:44.720Z,91.00
2018-11-29T16:36:48.570Z,91.10
2018-11-29T16:38:52.413Z,91.10
2018-11-29T16:40:56.252Z,91.30
2018-11-29T16:43:00.162Z,91.00
2018-11-29T16:45:04.337Z,91.00
2018-11-29T16:47:08.400Z,90.80
2018-11-29T16:49:12.218Z,90.60
2018-11-29T16:51:16.208Z,90.50
2018-11-29T16:53:20.281Z,90.50
2018-11-29T16:55:24.539Z,90.60
2018-11-29T16:57:28.600Z,90.80
2018-11-29T16:59:32.542Z,90.90
2018-11-29T17:01:36.381Z,91.10
2018-11-29T17:03:40.272Z,91.10
2018-11-29T17:05:45.101Z,91.30
2018-11-29T17:07:49.072Z,91.20
2018-11-29T17:09:52.917Z,90.90
2018-11-29T17:12:00.244Z,90.60
2018-11-29T17:14:00.724Z,90.50
2018-11-29T17:16:04.651Z,90.40
2018-11-29T17:18:08.517Z,90.50
2018-11-29T17:20:13.761Z,90.80
2018-11-29T17:22:17.547Z,90.80
2018-11-29T17:24:21.332Z,91.00
2018-11-29T17:26:25.352Z,91.00
2018-11-29T17:28:29.269Z,90.80
2018-11-29T17:30:33.156Z,90.50
2018-11-29T17:32:36.925Z,90.50
2018-11-29T17:34:40.702Z,90.80
2018-11-29T17:36:44.552Z,90.30
2018-11-29T17:38:48.625Z,89.80
2018-11-29T17:40:52.700Z,90.30
2018-11-29T17:42:57.317Z,89.60
2018-11-29T17:45:01.092Z,90.10
2018-11-29T17:47:05.370Z,89.80
2018-11-29T17:49:09.190Z,90.00
2018-11-29T17:51:13.236Z,89.00
2018-11-29T17:53:17.304Z,89.00
2018-11-29T17:55:21.274Z,89.40
2018-11-29T17:57:25.457Z,90.10
2018-11-29T17:59:29.269Z,90.00
2018-11-29T18:01:33.285Z,89.60
2018-11-29T18:03:37.222Z,90.00
2018-11-29T18:05:40.989Z,88.80
2018-11-29T18:07:44.853Z,89.40
2018-11-29T18:09:48.846Z,89.00
2018-11-29T18:11:52.773Z,88.60
2018-11-29T18:13:56.808Z,89.60
2018-11-29T18:16:00.665Z,87.80
2018-11-29T18:18:04.583Z,88.10
2018-11-29T18:20:10.157Z,87.80
2018-11-29T18:22:14.054Z,88.10
2018-11-29T18:24:17.965Z,87.40
2018-11-29T18:26:21.901Z,87.40
2018-11-29T18:28:25.694Z,87.90
2018-11-29T18:30:29.465Z,86.80
2018-11-29T18:32:33.255Z,86.30
2018-11-29T18:34:37.047Z,86.50
2018-11-29T18:36:40.972Z,85.70
2018-11-29T18:38:44.835Z,84.40
2018-11-29T18:40:49.371Z,85.00
2018-11-29T18:42:58.417Z,85.00
2018-11-29T18:45:02.248Z,85.80
2018-11-29T18:47:06.440Z,84.60
2018-11-29T18:49:10.214Z,85.00
2018-11-29T18:51:14.059Z,84.50
2018-11-29T18:53:17.993Z,83.70
2018-11-29T18:55:23.096Z,83.00
2018-11-29T18:57:26.951Z,83.50
2018-11-29T18:59:30.816Z,83.00
2018-11-29T19:01:34.672Z,83.60
2018-11-29T19:03:38.468Z,82.50
2018-11-29T19:05:42.256Z,82.30
2018-11-29T19:07:46.036Z,83.00
2018-11-29T19:09:50.033Z,82.70
2018-11-29T19:11:53.988Z,81.50
2018-11-29T19:13:57.788Z,82.20
2018-11-29T19:16:01.517Z,81.30
2018-11-29T19:18:10.307Z,81.90
2018-11-29T19:20:13.460Z,80.00
2018-11-29T19:22:17.405Z,81.20
2018-11-29T19:24:21.864Z,81.10
2018-11-29T19:26:25.621Z,81.50
2018-11-29T19:28:29.437Z,81.80
2018-11-29T19:30:33.621Z,81.70
2018-11-29T19:32:37.347Z,81.40
2018-11-29T19:34:41.258Z,81.20
2018-11-29T19:36:45.021Z,80.00
2018-11-29T19:38:48.777Z,80.30
2018-11-29T19:40:52.714Z,79.90
2018-11-29T19:42:56.516Z,80.70
2018-11-29T19:45:00.241Z,80.40
2018-11-29T19:47:04.320Z,79.30
2018-11-29T19:49:08.230Z,79.10
2018-11-29T19:51:11.968Z,80.40
2018-11-29T19:53:18.825Z,80.50
2018-11-29T19:55:27.720Z,80.50
2018-11-29T19:57:31.493Z,81.60
2018-11-29T19:59:35.397Z,80.60
2018-11-29T20:01:39.145Z,79.20
2018-11-29T20:03:43.838Z,78.60
2018-11-29T20:05:47.429Z,78.70
2018-11-29T20:07:51.264Z,78.70
2018-11-29T20:09:55.131Z,78.60
2018-11-29T20:11:58.872Z,77.60
2018-11-29T20:14:02.721Z,77.40
2018-11-29T20:16:06.921Z,78.70
2018-11-29T20:18:12.023Z,78.40
2018-11-29T20:20:15.837Z,79.00
2018-11-29T20:22:19.924Z,78.60
2018-11-29T20:24:23.753Z,78.30
2018-11-29T20:26:28.203Z,78.10
2018-11-29T20:28:32.072Z,78.00
2018-11-29T20:30:36.112Z,77.70
2018-11-29T20:32:39.904Z,78.40
2018-11-29T20:34:43.820Z,77.50
2018-11-29T20:36:49.594Z,78.50
2018-11-29T20:38:53.418Z,79.10
2018-11-29T20:40:57.797Z,78.60
2018-11-29T20:43:02.022Z,79.70
2018-11-29T20:45:07.936Z,80.10
2018-11-29T20:47:11.741Z,80.40
2018-11-29T20:49:15.468Z,81.10
2018-11-29T20:51:19.298Z,81.60
2018-11-29T20:53:27.848Z,81.30
2018-11-29T20:55:32.664Z,81.00
2018-11-29T20:57:36.381Z,81.50
2018-11-29T20:59:40.160Z,82.20
2018-11-29T21:01:44.100Z,81.90
2018-11-29T21:03:47.885Z,82.80
2018-11-29T21:05:51.733Z,83.10
2018-11-29T21:07:57.314Z,82.50
2018-11-29T21:10:03.145Z,84.40
2018-11-29T21:12:05.131Z,84.00
2018-11-29T21:14:09.067Z,85.00
2018-11-29T21:16:12.912Z,86.50
2018-11-29T21:18:16.973Z,86.20
2018-11-29T21:20:21.522Z,88.00
2018-11-29T21:22:25.511Z,88.10
2018-11-29T21:24:29.368Z,87.80
2018-11-29T21:26:33.224Z,88.30
2018-11-29T21:28:37.116Z,88.80
2018-11-29T21:30:41.125Z,89.50
2018-11-29T21:32:45.318Z,87.60
2018-11-29T21:34:49.060Z,88.50
2018-11-29T21:36:52.990Z,88.20
2018-11-29T21:38:56.816Z,88.90
2018-11-29T21:41:02.709Z,88.20
2018-11-29T21:43:06.508Z,88.70
2018-11-29T21:45:10.421Z,88.60
2018-11-29T21:47:14.137Z,89.20
2018-11-29T21:49:17.940Z,87.60
2018-11-29T21:51:21.853Z,88.40
2018-11-29T21:53:25.776Z,89.50
2018-11-29T21:55:29.822Z,88.40
2018-11-29T21:57:33.816Z,88.70
2018-11-29T21:59:37.936Z,89.30
2018-11-29T22:01:41.844Z,89.20
2018-11-29T22:03:45.776Z,88.80
2018-11-29T22:05:49.693Z,89.50
2018-11-29T22:07:53.608Z,89.40
2018-11-29T22:09:57.437Z,89.20
2018-11-29T22:12:01.314Z,90.00
2018-11-29T22:14:05.282Z,89.50
2018-11-29T22:16:09.205Z,90.10
2018-11-29T22:18:18.187Z,89.80
2018-11-29T22:20:21.994Z,89.70
2018-11-29T22:22:28.387Z,90.10
2018-11-29T22:24:29.822Z,90.00
2018-11-29T22:26:33.739Z,90.10
2018-11-29T22:28:37.689Z,90.30
2018-11-29T22:30:41.697Z,89.90
2018-11-29T22:32:45.560Z,90.10
2018-11-29T22:34:49.430Z,90.10
2018-11-29T22:36:53.447Z,90.30
2018-11-29T22:38:57.245Z,90.40
2018-11-29T22:41:01.145Z,90.20
2018-11-29T22:43:05.044Z,90.60
2018-11-29T22:45:09.321Z,90.20
2018-11-29T22:47:13.301Z,90.20
2018-11-29T22:49:17.100Z,90.40
2018-11-29T22:51:20.892Z,90.30
2018-11-29T22:53:24.838Z,90.20
2018-11-29T22:55:28.745Z,90.40
2018-11-29T22:57:32.760Z,90.10
2018-11-29T22:59:36.658Z,90.10
2018-11-29T23:01:40.626Z,90.30
2018-11-29T23:03:44.556Z,90.10
2018-11-29T23:05:48.432Z,90.60
2018-11-29T23:07:52.316Z,90.70
2018-11-29T23:09:56.144Z,90.30
2018-11-29T23:12:00.061Z,90.60
2018-11-29T23:14:04.029Z,90.30
2018-11-29T23:16:07.888Z,90.20
2018-11-29T23:18:11.900Z,90.70
2018-11-29T23:20:16.012Z,90.60
2018-11-29T23:22:19.896Z,90.30
2018-11-29T23:24:24.141Z,90.30
2018-11-29T23:26:27.996Z,89.80
2018-11-29T23:28:31.887Z,90.10
2018-11-29T23:30:35.921Z,89.40
2018-11-29T23:36:34.258Z,90.20
2018-11-29T23:38:38.384Z,90.20
2018-11-29T23:40:42.478Z,90.20
2018-11-29T23:42:46.814Z,90.10
2018-11-29T23:44:50.792Z,90.10
2018-11-29T23:46:54.553Z,89.70
2018-11-29T23:48:58.770Z,90.20
2018-11-29T23:51:02.747Z,90.30
2018-11-29T23:53:06.593Z,90.60
2018-11-29T23:55:11.877Z,90.90
2018-11-29T23:57:15.740Z,90.90
2018-11-29T23:59:19.504Z,90.50
